createdAt,value
2023-05-08T00:02:25.739Z,95879.13
2023-05-08T00:07:28.134Z,95879.97
2023-05-08T00:12:30.509Z,95885.84
2023-05-08T00:17:33.075Z,95881.75
2023-05-08T00:22:35.628Z,95884.81
2023-05-08T00:27:37.961Z,95890.78
2023-05-08T00:32:40.291Z,95890.72
2023-05-08T00:37:43.694Z,95893.34
2023-05-08T00:42:46.023Z,95899.63
2023-05-08T00:47:48.502Z,95892.22
2023-05-08T00:52:50.844Z,95894.94
2023-05-08T00:57:53.328Z,95890.53
2023-05-08T01:02:55.691Z,95897.31
2023-05-08T01:07:58.087Z,95899.44
2023-05-08T01:13:00.891Z,95903.34
2023-05-08T01:18:03.314Z,95894.72
2023-05-08T01:23:05.677Z,95907.19
2023-05-08T01:28:08.044Z,95907.72
2023-05-08T01:33:10.503Z,95911.47
2023-05-08T01:38:12.865Z,95922.34
2023-05-08T01:43:15.201Z,95939.56
2023-05-08T01:48:17.474Z,95936.91
2023-05-08T01:53:19.844Z,95933.56
2023-05-08T01:58:22.212Z,95938.25
2023-05-08T02:03:24.814Z,95943.88
2023-05-08T02:08:27.876Z,95940.19
2023-05-08T02:13:30.244Z,95942.94
2023-05-08T02:18:32.564Z,95942.44
2023-05-08T02:23:34.871Z,95942.78
2023-05-08T02:28:37.173Z,95941.28
2023-05-08T02:33:39.564Z,95941.34
2023-05-08T02:38:41.881Z,95945.66
2023-05-08T02:43:44.239Z,95955.13
2023-05-08T02:48:46.576Z,95959.75
2023-05-08T02:53:48.908Z,95958.50
2023-05-08T02:58:51.216Z,95948.59
2023-05-08T03:03:53.621Z,95956.69
2023-05-08T03:08:56.005Z,95956.47
2023-05-08T03:13:58.316Z,95965.44
2023-05-08T03:19:00.668Z,95964.63
2023-05-08T03:24:03.329Z,95958.44
2023-05-08T03:29:05.689Z,95967.16
2023-05-08T03:34:08.081Z,95965.03
2023-05-08T03:39:10.584Z,95970.69
2023-05-08T03:44:12.906Z,95974.47
2023-05-08T03:49:15.235Z,95971.78
2023-05-08T03:54:17.556Z,95973.16
2023-05-08T03:59:19.920Z,95973.69
2023-05-08T04:04:24.446Z,95975.84
2023-05-08T04:09:26.824Z,95983.94
2023-05-08T04:14:29.203Z,95997.41
2023-05-08T04:19:31.536Z,95999.81
2023-05-08T04:24:34.081Z,96004.13
2023-05-08T04:29:36.391Z,96004.16
2023-05-08T04:34:38.743Z,96005.47
2023-05-08T04:39:43.141Z,96016.25
2023-05-08T04:44:47.211Z,96014.91
2023-05-08T04:49:49.563Z,96017.34
2023-05-08T04:54:51.959Z,96021.63
2023-05-08T04:59:54.595Z,96031.88
2023-05-08T05:04:59.684Z,96031.88
2023-05-08T05:10:01.998Z,96032.41
2023-05-08T05:15:04.639Z,96040.19
2023-05-08T05:20:08.753Z,96050.13
2023-05-08T05:25:11.495Z,96050.69
2023-05-08T05:30:14.301Z,96047.44
2023-05-08T05:35:17.177Z,96053.88
2023-05-08T05:40:20.199Z,96053.38
2023-05-08T05:45:22.656Z,96053.91
2023-05-08T05:50:25.215Z,96057.66
2023-05-08T05:55:27.707Z,96064.13
2023-05-08T06:00:30.733Z,96075.69
2023-05-08T06:05:33.294Z,96075.94
2023-05-08T06:10:36.441Z,96071.41
2023-05-08T06:15:39.156Z,96077.56
2023-05-08T06:20:41.671Z,96065.47
2023-05-08T06:25:44.120Z,96070.84
2023-05-08T06:30:46.615Z,96086.75
2023-05-08T06:35:48.992Z,96080.81
2023-05-08T06:40:51.550Z,96077.84
2023-05-08T06:45:54.073Z,96084.03
2023-05-08T06:50:56.755Z,96087.19
2023-05-08T06:55:59.209Z,96087.75
2023-05-08T07:01:01.891Z,96085.63
2023-05-08T07:06:05.085Z,96089.88
2023-05-08T07:11:10.096Z,96087.53
2023-05-08T07:16:12.551Z,96093.75
2023-05-08T07:21:15.935Z,96083.41
2023-05-08T07:26:18.290Z,96086.94
2023-05-08T07:31:21.032Z,96090.59
2023-05-08T07:36:24.756Z,96091.53
2023-05-08T07:41:27.609Z,96094.56
2023-05-08T07:46:30.033Z,96097.56
2023-05-08T07:51:33.276Z,96086.44
2023-05-08T07:56:35.584Z,96096.97
2023-05-08T08:01:38.119Z,96093.16
2023-05-08T08:06:40.464Z,96089.50
2023-05-08T08:11:42.854Z,96086.19
2023-05-08T08:16:45.292Z,96092.88
2023-05-08T08:21:47.832Z,96087.81
2023-05-08T08:26:50.436Z,96090.41
2023-05-08T08:31:52.813Z,96100.31
2023-05-08T08:36:55.215Z,96090.97
2023-05-08T08:41:57.810Z,96091.50
2023-05-08T08:47:00.238Z,96092.72
2023-05-08T08:52:02.824Z,96101.00
2023-05-08T08:57:05.298Z,96095.16
2023-05-08T09:02:07.951Z,96103.06
2023-05-08T09:07:10.838Z,96084.75
2023-05-08T09:12:13.284Z,96089.34
2023-05-08T09:17:17.862Z,96087.81
2023-05-08T09:22:20.166Z,96091.94
2023-05-08T09:27:22.478Z,96089.66
2023-05-08T09:32:25.089Z,96089.41
2023-05-08T09:37:27.530Z,96085.94
2023-05-08T09:42:29.880Z,96088.81
2023-05-08T09:47:32.415Z,96094.13
2023-05-08T09:52:35.122Z,96092.97
2023-05-08T09:57:38.473Z,96095.47
2023-05-08T10:02:40.913Z,96097.41
2023-05-08T10:07:43.577Z,96086.97
2023-05-08T10:12:46.161Z,96093.50
2023-05-08T10:17:49.065Z,96094.31
2023-05-08T10:22:54.516Z,96087.25
2023-05-08T10:27:58.074Z,96089.81
2023-05-08T10:33:00.804Z,96075.34
2023-05-08T10:38:03.292Z,96076.34
2023-05-08T10:43:07.090Z,96080.88
2023-05-08T10:48:09.866Z,96087.25
2023-05-08T10:53:12.215Z,96075.22
2023-05-08T10:58:15.278Z,96061.84
2023-05-08T11:03:30.631Z,96067.56
2023-05-08T11:08:34.796Z,96065.13
2023-05-08T11:13:37.171Z,96069.50
2023-05-08T11:18:49.150Z,96068.75
2023-05-08T11:23:52.071Z,96067.28
2023-05-08T11:28:57.491Z,96058.25
2023-05-08T11:34:00.999Z,96061.72
2023-05-08T11:39:03.763Z,96052.38
2023-05-08T11:44:09.357Z,96046.69
2023-05-08T11:49:11.803Z,96050.13
2023-05-08T11:54:14.602Z,96057.34
2023-05-08T11:59:17.056Z,96054.69
2023-05-08T12:04:20.087Z,96056.28
2023-05-08T12:09:23.035Z,96058.75
2023-05-08T12:14:25.587Z,96068.72
2023-05-08T12:19:28.410Z,96058.47
2023-05-08T12:24:31.526Z,96065.66
2023-05-08T12:29:34.285Z,96065.09
2023-05-08T12:34:36.580Z,96058.78
2023-05-08T12:39:39.284Z,96058.94
2023-05-08T12:44:41.712Z,96060.56
2023-05-08T12:49:49.093Z,96059.94
2023-05-08T12:54:51.737Z,96056.06
2023-05-08T12:59:54.190Z,96054.22
2023-05-08T13:04:56.916Z,96050.66
2023-05-08T13:09:59.826Z,96050.28
2023-05-08T13:15:04.672Z,96049.97
2023-05-08T13:20:07.543Z,96047.09
2023-05-08T13:25:10.701Z,96044.09
2023-05-08T13:30:13.443Z,96040.75
2023-05-08T13:35:16.154Z,96042.81
2023-05-08T13:40:18.671Z,96041.22
2023-05-08T13:45:21.108Z,96039.31
2023-05-08T13:50:23.460Z,96028.16
2023-05-08T13:55:25.883Z,96036.94
2023-05-08T14:00:28.947Z,96035.25
2023-05-08T14:05:31.384Z,96036.31
2023-05-08T14:10:33.701Z,96029.59
2023-05-08T14:15:37.628Z,96043.50
2023-05-08T14:20:40.865Z,96036.97
2023-05-08T14:25:43.627Z,96037.09
2023-05-08T14:30:45.929Z,96041.69
2023-05-08T14:35:48.639Z,96025.34
2023-05-08T14:40:51.070Z,96027.44
2023-05-08T14:45:53.687Z,96025.69
2023-05-08T14:50:56.425Z,96016.38
2023-05-08T14:55:59.736Z,96018.34
2023-05-08T15:01:03.005Z,96028.03
2023-05-08T15:06:05.780Z,96023.00
2023-05-08T15:11:08.279Z,96019.38
2023-05-08T15:16:11.053Z,96028.41
2023-05-08T15:21:13.370Z,96023.97
2023-05-08T15:26:15.844Z,96029.63
2023-05-08T15:31:18.499Z,96032.25
2023-05-08T15:36:21.078Z,96026.19
2023-05-08T15:41:23.391Z,96030.19
2023-05-08T15:46:25.738Z,96025.31
2023-05-08T15:51:28.731Z,96023.84
2023-05-08T15:56:31.455Z,96017.91
2023-05-08T16:01:33.876Z,96021.91
2023-05-08T16:06:36.606Z,96023.59
2023-05-08T16:11:39.004Z,96013.53
2023-05-08T16:16:41.410Z,96009.06
2023-05-08T16:21:43.744Z,96007.22
2023-05-08T16:26:46.575Z,96009.56
2023-05-08T16:31:49.091Z,96008.72
2023-05-08T16:36:51.448Z,96006.91
2023-05-08T16:41:53.804Z,96008.81
2023-05-08T16:46:56.176Z,96012.25
2023-05-08T16:51:59.128Z,96013.91
2023-05-08T16:57:01.483Z,96014.75
2023-05-08T17:02:04.056Z,96021.59
2023-05-08T17:07:07.445Z,96026.22
2023-05-08T17:12:09.893Z,96028.13
2023-05-08T17:17:12.311Z,96032.53
2023-05-08T17:22:14.696Z,96040.47
2023-05-08T17:27:17.126Z,96044.59
2023-05-08T17:32:19.556Z,96044.09
2023-05-08T17:37:21.972Z,96046.56
2023-05-08T17:42:24.634Z,96050.59
2023-05-08T17:47:29.862Z,96051.38
2023-05-08T17:52:33.078Z,96056.44
2023-05-08T17:57:35.422Z,96061.88
2023-05-08T18:02:37.897Z,96068.06
2023-05-08T18:07:41.051Z,96068.97
2023-05-08T18:12:43.611Z,96073.66
2023-05-08T18:17:45.976Z,96072.94
2023-05-08T18:22:48.403Z,96072.22
2023-05-08T18:27:50.833Z,96082.50
2023-05-08T18:32:54.289Z,96089.34
2023-05-08T18:37:56.797Z,96083.91
2023-05-08T18:42:59.461Z,96085.91
2023-05-08T18:48:01.900Z,96088.47
2023-05-08T18:53:04.384Z,96091.75
2023-05-08T18:58:07.447Z,96094.22
2023-05-08T19:03:10.087Z,96091.91
2023-05-08T19:08:13.121Z,96092.84
2023-05-08T19:13:15.484Z,96090.88
2023-05-08T19:18:18.123Z,96095.25
2023-05-08T19:23:20.529Z,96102.34
2023-05-08T19:28:23.162Z,96103.53
2023-05-08T19:33:25.872Z,96105.97
2023-05-08T19:38:28.214Z,96105.28
2023-05-08T19:43:30.566Z,96103.16
2023-05-08T19:48:33.020Z,96109.66
2023-05-08T19:53:35.988Z,96106.72
2023-05-08T19:58:38.409Z,96104.59
2023-05-08T20:03:41.175Z,96113.59
2023-05-08T20:08:43.962Z,96116.31
2023-05-08T20:13:46.569Z,96114.22
2023-05-08T20:18:49.804Z,96116.94
2023-05-08T20:23:52.329Z,96115.38
2023-05-08T20:28:54.743Z,96127.03
2023-05-08T20:33:57.072Z,96118.09
2023-05-08T20:38:59.582Z,96108.16
2023-05-08T20:44:01.925Z,96106.28
2023-05-08T20:49:06.202Z,96106.56
2023-05-08T20:54:08.624Z,96099.88
2023-05-08T20:59:11.552Z,96100.19
2023-05-08T21:04:13.917Z,96093.19
2023-05-08T21:09:16.292Z,96093.78
2023-05-08T21:14:18.643Z,96094.63
2023-05-08T21:19:20.955Z,96095.75
2023-05-08T21:24:25.650Z,96096.84
2023-05-08T21:29:28.024Z,96096.84
2023-05-08T21:34:30.356Z,96090.69
2023-05-08T21:39:32.801Z,96085.84
2023-05-08T21:44:35.174Z,96078.56
2023-05-08T21:49:37.566Z,96075.63
2023-05-08T21:54:39.928Z,96072.41
2023-05-08T21:59:42.507Z,96065.97
2023-05-08T22:04:44.897Z,96067.88
2023-05-08T22:09:47.315Z,96065.72
2023-05-08T22:14:49.632Z,96055.78
2023-05-08T22:19:51.989Z,96053.38
2023-05-08T22:24:54.376Z,96056.59
2023-05-08T22:29:56.717Z,96046.09
2023-05-08T22:35:01.249Z,96049.06
2023-05-08T22:40:04.120Z,96052.00
2023-05-08T22:45:06.481Z,96046.09
2023-05-08T22:50:09.200Z,96055.78
2023-05-08T22:55:11.781Z,96051.75
2023-05-08T23:00:16.825Z,96045.31
2023-05-08T23:05:19.250Z,96049.06
2023-05-08T23:10:22.718Z,96057.38
2023-05-08T23:15:25.132Z,96052.25
2023-05-08T23:20:27.491Z,96048.22
2023-05-08T23:25:29.844Z,96041.50
2023-05-08T23:30:34.030Z,96040.97
2023-05-08T23:35:36.600Z,96042.28
2023-05-08T23:40:38.976Z,96025.59
2023-05-08T23:45:41.247Z,96022.09
2023-05-08T23:50:43.620Z,96015.88
2023-05-08T23:55:46.741Z,96017.19
